Time;durP1;ratioP1;P1;durP2;ratioP2;P2;SDS_P1;SDS_P2;PMS_P1;PMS_P2;Temp;Humidity;BMP_temperature;BMP_pressure;BME280_temperature;BME280_humidity;BME280_pressure;Samples;Min_cycle;Max_cycle;Signal;HPM_P1;HPM_P2
2021/11/07 00:00:43;;;;;;;34.97;24.30;;;;;;;9.83;75.71;95700.31;5039705;28;20510;-70
2021/11/07 00:06:05;;;;;;;30.70;21.20;;;;;;;9.94;75.65;95701.34;5069994;28;20484;-69
2021/11/07 00:11:19;;;;;;;30.83;20.58;;;;;;;10.05;76.06;95696.28;5068960;28;20468;-70
2021/11/07 00:13:45;;;;;;;30.33;21.35;;;;;;;10.05;75.76;95696.28;5069795;28;20090;-70
2021/11/07 00:16:15;;;;;;;30.80;20.35;;;;;;;10.02;75.67;95686.09;5084329;28;20505;-70
2021/11/07 00:18:46;;;;;;;28.23;18.63;;;;;;;10.05;75.51;95684.13;5055950;28;20086;-70
2021/11/07 00:21:20;;;;;;;31.48;19.90;;;;;;;10.14;75.77;95687.03;5069893;28;20037;-70
2021/11/07 00:23:56;;;;;;;26.83;19.70;;;;;;;10.14;75.84;95685.28;5070608;28;20082;-70
2021/11/07 00:36:56;;;;;;;27.58;19.67;;;;;;;10.09;76.07;95691.72;5070382;28;20116;-70
2021/11/07 00:47:40;;;;;;;23.67;18.23;;;;;;;10.11;76.26;95703.66;5053445;28;20044;-69
2021/11/07 00:50:13;;;;;;;27.15;18.45;;;;;;;10.13;76.05;95704.38;5069516;28;20436;-69
2021/11/07 00:52:52;;;;;;;23.38;16.88;;;;;;;10.09;76.05;95694.31;5053753;28;20392;-70
2021/11/07 00:57:57;;;;;;;30.83;20.58;;;;;;;10.11;76.62;95682.06;5069128;28;20028;-70
2021/11/07 01:02:59;;;;;;;29.70;19.98;;;;;;;10.10;76.66;95676.03;5069504;28;20029;-70
2021/11/07 01:05:26;;;;;;;28.52;18.38;;;;;;;10.12;76.61;95678.53;5068860;28;20074;-70
2021/11/07 01:07:52;;;;;;;40.40;26.63;;;;;;;10.18;76.25;95665.97;5036092;28;20411;-69
2021/11/07 01:10:18;;;;;;;48.28;29.70;;;;;;;10.11;76.13;95648.31;5069071;28;20040;-69
2021/11/07 01:12:44;;;;;;;40.80;26.85;;;;;;;10.10;76.28;95650.06;5052445;28;20024;-70
2021/11/07 01:15:09;;;;;;;36.30;25.83;;;;;;;10.01;76.19;95641.13;5057163;28;20426;-69
2021/11/07 01:17:35;;;;;;;41.20;25.98;;;;;;;10.06;76.22;95653.81;5070085;28;20032;-70
2021/11/07 01:20:00;;;;;;;38.05;25.45;;;;;;;10.07;76.40;95651.09;5069024;28;20149;-69
2021/11/07 01:22:39;;;;;;;44.72;27.25;;;;;;;10.04;76.39;95648.72;5071102;28;20090;-69
2021/11/07 01:25:05;;;;;;;45.15;28.70;;;;;;;10.10;76.46;95657.03;5058663;28;20041;-69
2021/11/07 01:27:41;;;;;;;35.80;22.80;;;;;;;10.05;76.12;95642.59;5092857;28;20030;-70
2021/11/07 01:30:13;;;;;;;36.65;25.10;;;;;;;10.09;76.24;95652.78;5092754;28;20387;-69
2021/11/07 01:32:42;;;;;;;38.42;25.13;;;;;;;10.13;76.41;95649.03;5092842;28;20113;-69
2021/11/07 01:36:01;;;;;;;33.83;23.23;;;;;;;10.09;76.30;95643.22;5094032;28;20534;-69
2021/11/07 01:38:10;;;;;;;37.20;25.77;;;;;;;10.04;76.64;95645.31;5086824;28;20044;-69
2021/11/07 01:40:42;;;;;;;34.50;24.43;;;;;;;9.96;76.31;95632.81;5094195;28;20036;-69
2021/11/07 01:43:07;;;;;;;37.85;26.30;;;;;;;10.05;76.34;95636.56;5076188;28;20294;-70
2021/11/07 01:45:47;;;;;;;39.83;26.15;;;;;;;10.04;76.44;95640.09;5090665;28;20020;-69
2021/11/07 01:50:44;;;;;;;32.60;23.33;;;;;;;9.99;76.26;95631.78;5093944;28;20047;-70
2021/11/07 01:53:33;;;;;;;40.15;23.38;;;;;;;10.01;76.17;95629.94;5076376;28;20074;-69
2021/11/07 01:55:56;;;;;;;33.97;22.67;;;;;;;10.01;75.99;95633.34;5091477;28;20044;-70
2021/11/07 01:58:23;;;;;;;33.17;23.95;;;;;;;9.97;76.04;95623.28;5091845;28;20031;-70
2021/11/07 02:00:50;;;;;;;34.38;22.33;;;;;;;9.97;75.90;95623.28;5092074;28;20048;-69
2021/11/07 02:03:15;;;;;;;39.05;25.60;;;;;;;9.98;75.95;95630.16;5091992;28;20046;-70
2021/11/07 02:05:41;;;;;;;33.95;24.27;;;;;;;9.94;75.98;95628.66;5074522;28;20028;-69
2021/11/07 02:08:07;;;;;;;33.55;25.80;;;;;;;9.76;75.64;95616.00;5093327;28;20123;-70
2021/11/07 02:10:33;;;;;;;38.20;27.33;;;;;;;9.84;76.19;95639.69;5075225;28;20547;-70
2021/11/07 02:12:59;;;;;;;36.58;26.27;;;;;;;9.79;76.00;95649.53;5091873;28;20081;-70
2021/11/07 02:15:24;;;;;;;38.22;26.38;;;;;;;9.73;76.12;95649.13;5074932;28;20028;-69
2021/11/07 02:17:50;;;;;;;40.53;26.90;;;;;;;9.72;76.28;95640.50;5084996;28;20036;-69
2021/11/07 02:20:32;;;;;;;36.95;27.35;;;;;;;9.69;76.00;95651.06;5091703;28;20035;-70
2021/11/07 02:22:59;;;;;;;39.50;26.13;;;;;;;9.67;76.12;95642.56;5075374;28;20074;-69
2021/11/07 02:25:25;;;;;;;34.60;24.45;;;;;;;9.72;76.26;95635.31;5083238;28;20384;-69
2021/11/07 02:27:51;;;;;;;38.83;28.15;;;;;;;9.71;76.21;95638.00;5071469;28;20418;-69
2021/11/07 02:30:16;;;;;;;36.78;25.77;;;;;;;9.68;76.21;95644.22;5071464;28;20028;-69
2021/11/07 02:32:43;;;;;;;32.53;23.23;;;;;;;9.72;76.29;95634.47;5054751;28;20021;-70
2021/11/07 02:35:09;;;;;;;37.38;24.60;;;;;;;9.76;76.11;95635.94;5053847;28;20110;-69
2021/11/07 02:37:34;;;;;;;34.85;25.77;;;;;;;9.69;76.29;95635.50;5070917;28;20494;-70
2021/11/07 02:40:00;;;;;;;32.40;23.58;;;;;;;9.71;76.24;95643.19;5071063;28;20024;-70
2021/11/07 02:42:25;;;;;;;35.90;24.83;;;;;;;9.66;76.38;95643.47;5037873;28;20431;-69
2021/11/07 02:44:51;;;;;;;37.42;24.08;;;;;;;9.62;76.41;95632.50;5054462;28;20094;-69
2021/11/07 02:47:16;;;;;;;35.47;24.77;;;;;;;9.72;76.36;95632.72;5072162;28;20024;-69
2021/11/07 02:49:42;;;;;;;34.17;23.77;;;;;;;9.75;76.42;95635.13;5058534;28;20047;-69
2021/11/07 02:52:08;;;;;;;35.92;24.55;;;;;;;9.72;76.18;95624.09;5071033;28;20491;-69
2021/11/07 02:54:34;;;;;;;29.08;20.67;;;;;;;9.78;76.27;95637.50;5070862;28;20576;-69
2021/11/07 02:57:00;;;;;;;38.08;25.23;;;;;;;9.66;76.38;95614.13;5077686;28;20031;-69
2021/11/07 02:59:27;;;;;;;32.95;23.67;;;;;;;9.68;76.10;95618.28;5074109;28;20029;-69
2021/11/07 03:01:54;;;;;;;38.20;23.88;;;;;;;9.74;76.39;95622.22;5074148;28;20079;-69
2021/11/07 03:04:20;;;;;;;32.35;22.88;;;;;;;9.72;76.50;95616.31;5074029;28;20028;-69
2021/11/07 03:06:45;;;;;;;36.17;23.23;;;;;;;9.72;76.44;95606.78;5074181;28;20036;-69
2021/11/07 03:09:14;;;;;;;30.08;21.40;;;;;;;9.78;76.54;95613.31;5074022;28;20109;-69
2021/11/07 03:11:43;;;;;;;29.27;21.52;;;;;;;9.80;76.26;95616.63;5073751;28;20122;-70
2021/11/07 03:14:12;;;;;;;33.92;23.70;;;;;;;9.77;76.55;95622.84;5091942;28;20024;-69
2021/11/07 03:16:38;;;;;;;29.52;21.63;;;;;;;9.72;76.30;95618.91;5073768;28;20028;-70
2021/11/07 03:19:03;;;;;;;30.88;22.13;;;;;;;9.74;76.26;95628.25;5090649;28;20084;-69
2021/11/07 03:21:29;;;;;;;34.30;21.67;;;;;;;9.74;76.30;95632.59;5072508;28;20035;-69
2021/11/07 03:23:54;;;;;;;28.85;20.42;;;;;;;9.70;75.97;95626.81;5090547;28;20035;-69
2021/11/07 03:26:21;;;;;;;28.95;20.23;;;;;;;9.67;75.92;95620.97;5091997;28;20035;-69
2021/11/07 03:28:49;;;;;;;28.45;20.85;;;;;;;9.64;75.76;95627.22;5090505;28;20107;-70
2021/11/07 03:31:25;;;;;;;32.38;21.60;;;;;;;9.61;76.32;95633.44;5072287;28;20032;-69
2021/11/07 03:33:52;;;;;;;28.92;20.50;;;;;;;9.55;76.19;95638.19;5061942;28;20517;-70
2021/11/07 03:36:20;;;;;;;29.98;20.42;;;;;;;9.56;75.88;95639.84;5073649;28;20464;-69
2021/11/07 03:38:47;;;;;;;30.83;19.92;;;;;;;9.55;75.77;95639.00;5090132;28;20081;-69
2021/11/07 03:41:12;;;;;;;31.85;22.45;;;;;;;9.53;76.04;95638.28;5077614;28;20108;-68
2021/11/07 03:43:38;;;;;;;32.75;20.58;;;;;;;9.55;75.99;95643.38;5066922;28;20511;-69
2021/11/07 03:46:04;;;;;;;34.88;21.75;;;;;;;9.58;76.39;95641.41;5068403;28;20120;-69
2021/11/07 03:48:30;;;;;;;30.35;20.83;;;;;;;9.58;76.36;95632.78;5084511;28;20473;-69
2021/11/07 03:50:57;;;;;;;29.05;20.30;;;;;;;9.62;76.51;95639.44;5072660;28;20119;-69
2021/11/07 03:53:23;;;;;;;29.20;21.95;;;;;;;9.69;76.89;95635.50;5089695;28;20031;-69
2021/11/07 03:55:48;;;;;;;33.90;23.17;;;;;;;9.67;76.89;95632.19;5087705;28;20421;-69
2021/11/07 03:58:14;;;;;;;28.42;20.67;;;;;;;9.65;76.92;95617.66;5070608;28;20422;-69
2021/11/07 04:00:39;;;;;;;31.00;20.95;;;;;;;9.72;77.07;95630.13;5088873;28;20084;-69
2021/11/07 04:03:05;;;;;;;29.85;18.88;;;;;;;9.75;76.85;95631.66;5088671;28;20032;-69
2021/11/07 04:05:32;;;;;;;30.08;20.63;;;;;;;9.78;76.83;95636.69;5089205;28;20071;-69
2021/11/07 04:07:57;;;;;;;31.23;20.75;;;;;;;9.77;76.78;95629.81;5072578;28;20481;-69
2021/11/07 04:10:23;;;;;;;28.13;20.02;;;;;;;9.80;77.04;95643.41;5088076;28;20085;-69
2021/11/07 04:12:49;;;;;;;27.98;19.95;;;;;;;9.80;77.18;95633.03;5071997;28;20107;-69
2021/11/07 04:15:16;;;;;;;31.95;21.65;;;;;;;9.82;77.09;95628.56;5089713;28;20043;-69
2021/11/07 04:17:41;;;;;;;34.33;23.88;;;;;;;9.81;77.03;95626.91;5088888;28;20055;-69
2021/11/07 04:20:07;;;;;;;37.03;24.23;;;;;;;9.87;77.23;95632.63;5055785;28;20039;-69
2021/11/07 04:22:33;;;;;;;38.55;24.23;;;;;;;9.90;77.38;95637.63;5057342;28;20032;-69
2021/11/07 04:24:58;;;;;;;37.65;23.98;;;;;;;9.92;76.95;95633.97;5064900;28;20090;-68
2021/11/07 04:27:24;;;;;;;38.03;24.65;;;;;;;9.95;76.95;95635.53;5049358;28;20043;-69
2021/11/07 04:29:50;;;;;;;36.95;25.88;;;;;;;9.91;76.89;95637.50;5052161;28;20090;-69
2021/11/07 04:32:15;;;;;;;41.08;24.83;;;;;;;9.97;76.99;95633.66;5046776;28;20032;-71
2021/11/07 04:34:41;;;;;;;35.22;24.25;;;;;;;9.97;76.95;95618.94;5066954;28;20538;-69
2021/11/07 04:37:07;;;;;;;38.35;23.75;;;;;;;9.94;76.85;95623.47;5069755;28;20029;-69
2021/11/07 04:39:33;;;;;;;32.65;22.85;;;;;;;9.97;76.55;95629.31;5056067;28;20044;-69
2021/11/07 04:41:58;;;;;;;37.17;26.17;;;;;;;9.95;76.69;95618.19;5066392;28;20021;-69
2021/11/07 04:44:24;;;;;;;33.50;24.50;;;;;;;9.99;77.30;95624.00;5051518;28;20131;-69
2021/11/07 04:46:51;;;;;;;40.53;25.10;;;;;;;10.01;76.99;95616.97;5068365;28;20486;-69
2021/11/07 04:49:16;;;;;;;32.55;23.30;;;;;;;9.99;77.02;95603.25;5082990;28;20456;-69
2021/11/07 04:51:42;;;;;;;32.80;23.23;;;;;;;9.96;76.85;95600.84;5055459;28;20081;-69
2021/11/07 04:54:07;;;;;;;32.03;21.65;;;;;;;9.99;76.99;95611.03;5066890;28;20032;-69
2021/11/07 04:56:33;;;;;;;32.40;22.60;;;;;;;9.97;76.72;95605.09;5088299;28;20141;-70
2021/11/07 04:58:58;;;;;;;33.42;23.05;;;;;;;9.97;76.81;95600.78;5071576;28;20028;-70
2021/11/07 05:01:24;;;;;;;32.15;20.70;;;;;;;9.98;76.70;95609.38;5092897;28;20058;-71
2021/11/07 05:03:49;;;;;;;28.98;20.20;;;;;;;9.96;76.46;95617.25;5092616;28;20089;-70
2021/11/07 05:06:15;;;;;;;26.83;19.50;;;;;;;9.87;76.52;95607.50;5079996;28;20043;-70
2021/11/07 05:08:40;;;;;;;31.58;20.15;;;;;;;9.90;76.79;95616.84;5071177;28;20036;-70
2021/11/07 05:11:06;;;;;;;26.55;18.75;;;;;;;9.78;76.64;95598.56;5072518;28;20098;-70
2021/11/07 05:13:31;;;;;;;27.75;19.48;;;;;;;9.89;76.54;95623.81;5072588;28;20086;-70
2021/11/07 05:15:58;;;;;;;30.10;19.10;;;;;;;9.85;76.38;95615.38;5052898;28;20552;-70
2021/11/07 05:18:24;;;;;;;27.75;19.08;;;;;;;9.78;76.49;95619.34;5073015;28;20078;-71
2021/11/07 05:20:49;;;;;;;25.55;18.17;;;;;;;9.74;76.51;95617.88;5072111;28;20040;-70
2021/11/07 05:23:14;;;;;;;24.23;17.95;;;;;;;9.74;76.66;95633.44;5074087;28;20486;-70
2021/11/07 05:25:40;;;;;;;32.78;22.42;;;;;;;9.73;76.30;95625.78;5071073;28;20035;-70
2021/11/07 05:28:05;;;;;;;30.58;21.15;;;;;;;9.70;76.91;95626.81;5055503;28;20032;-70
2021/11/07 05:30:31;;;;;;;29.42;18.10;;;;;;;9.71;76.96;95627.63;5072928;28;20039;-70
2021/11/07 05:32:56;;;;;;;26.88;18.17;;;;;;;9.66;76.81;95625.31;5082226;28;20024;-72
2021/11/07 05:35:22;;;;;;;25.70;18.48;;;;;;;9.63;76.88;95625.53;5054754;28;20040;-70
2021/11/07 05:37:48;;;;;;;24.70;17.25;;;;;;;9.67;76.62;95642.56;5088367;28;20081;-69
2021/11/07 05:40:17;;;;;;;26.17;18.27;;;;;;;9.66;76.97;95627.91;5074515;28;20123;-69
2021/11/07 05:42:43;;;;;;;28.60;20.17;;;;;;;9.71;76.99;95628.44;5091903;28;20020;-70
2021/11/07 05:45:09;;;;;;;24.23;17.88;;;;;;;9.73;76.76;95621.41;5074428;28;20101;-70
2021/11/07 05:47:35;;;;;;;31.83;21.08;;;;;;;9.78;77.54;95616.75;5072333;28;20032;-71
2021/11/07 05:50:00;;;;;;;32.15;21.90;;;;;;;9.93;77.90;95632.22;5074569;28;20132;-70
2021/11/07 05:52:26;;;;;;;30.25;21.33;;;;;;;9.99;77.93;95630.03;5038139;28;20028;-70
2021/11/07 05:54:52;;;;;;;29.70;20.25;;;;;;;10.04;78.11;95632.31;5054488;28;20387;-70
2021/11/07 05:57:17;;;;;;;31.13;21.48;;;;;;;10.12;77.38;95637.81;5037883;28;20043;-70
2021/11/07 05:59:43;;;;;;;33.85;20.33;;;;;;;10.17;77.45;95640.94;5071108;28;20044;-71
2021/11/07 06:02:09;;;;;;;27.77;18.17;;;;;;;10.21;77.65;95646.75;5071164;28;20028;-70
2021/11/07 06:04:35;;;;;;;24.17;17.20;;;;;;;10.25;77.43;95643.84;5068329;28;20048;-70
2021/11/07 06:07:00;;;;;;;31.17;20.80;;;;;;;10.27;77.72;95654.97;5071398;28;20029;-70
2021/11/07 06:09:25;;;;;;;25.35;18.48;;;;;;;10.28;77.70;95635.88;5052832;28;20037;-70
2021/11/07 06:11:51;;;;;;;25.55;16.67;;;;;;;10.34;77.71;95646.78;5072304;28;20024;-71
2021/11/07 06:14:16;;;;;;;24.02;16.58;;;;;;;10.38;77.60;95643.84;5071059;28;20044;-71
2021/11/07 06:16:42;;;;;;;30.40;21.38;;;;;;;10.44;77.58;95651.22;5071832;28;20028;-72
2021/11/07 06:19:07;;;;;;;32.80;22.33;;;;;;;10.44;77.81;95640.81;5071812;28;20078;-71
2021/11/07 06:21:35;;;;;;;29.30;20.63;;;;;;;10.56;77.79;95654.75;5068386;28;20086;-71
2021/11/07 06:24:01;;;;;;;28.40;21.25;;;;;;;10.64;77.65;95656.81;5070520;28;20025;-71
2021/11/07 06:26:26;;;;;;;26.75;19.02;;;;;;;10.54;77.74;95619.44;5087407;28;20031;-71
2021/11/07 06:28:53;;;;;;;28.58;20.63;;;;;;;10.73;77.57;95650.97;5074586;28;20039;-71
2021/11/07 06:31:22;;;;;;;32.58;23.75;;;;;;;10.82;77.79;95652.91;5073621;28;20040;-71
2021/11/07 06:33:48;;;;;;;37.75;27.63;;;;;;;10.87;77.54;95652.59;5091960;28;20028;-72
2021/11/07 06:36:13;;;;;;;35.65;25.73;;;;;;;11.01;77.47;95659.44;5074340;28;20047;-71
2021/11/07 06:38:39;;;;;;;46.63;31.25;;;;;;;11.08;77.48;95666.66;5054566;28;20024;-71
2021/11/07 06:41:04;;;;;;;45.00;30.75;;;;;;;11.12;77.17;95657.72;5073502;28;20058;-71
2021/11/07 06:43:30;;;;;;;44.42;29.83;;;;;;;11.23;77.21;95674.31;5073921;28;20050;-72
2021/11/07 06:45:55;;;;;;;48.50;30.65;;;;;;;11.22;77.11;95654.44;5091457;28;20077;-71
2021/11/07 06:48:21;;;;;;;43.70;31.08;;;;;;;11.30;76.88;95657.31;5073799;28;20031;-72
2021/11/07 06:50:46;;;;;;;43.60;32.00;;;;;;;11.44;76.56;95674.53;5073446;28;20036;-71
2021/11/07 06:53:12;;;;;;;41.25;29.38;;;;;;;11.49;76.37;95662.03;5072331;28;20085;-71
2021/11/07 06:55:37;;;;;;;39.08;28.20;;;;;;;11.54;76.32;95665.13;5089027;28;20040;-71
2021/11/07 06:58:03;;;;;;;34.90;26.13;;;;;;;11.61;75.93;95656.75;5090782;28;20024;-71
2021/11/07 07:00:29;;;;;;;42.17;27.83;;;;;;;11.69;75.85;95655.34;5090816;28;20067;-71
2021/11/07 07:02:54;;;;;;;36.88;27.25;;;;;;;11.74;75.80;95661.88;5091484;28;20039;-72
2021/11/07 07:05:20;;;;;;;33.38;23.92;;;;;;;11.82;75.72;95664.75;5090097;28;20401;-72
2021/11/07 07:07:50;;;;;;;39.42;27.42;;;;;;;11.79;75.32;95646.75;5072934;28;20024;-71
2021/11/07 07:10:23;;;;;;;59.75;34.42;;;;;;;11.85;74.48;95654.13;5068297;28;20036;-72
2021/11/07 07:12:59;;;;;;;55.03;32.97;;;;;;;11.88;73.96;95650.47;5068406;28;20028;-71
2021/11/07 07:15:29;;;;;;;52.28;34.15;;;;;;;11.86;74.28;95639.34;5067049;28;20048;-72
2021/11/07 07:35:41;;;;;;;36.78;25.33;;;;;;;12.97;75.06;95653.34;5090274;28;20039;-72
2021/11/07 07:38:07;;;;;;;34.17;24.52;;;;;;;13.15;74.62;95663.31;5090126;28;20020;-72
2021/11/07 07:40:32;;;;;;;40.63;27.42;;;;;;;13.22;72.67;95654.00;5089940;28;20063;-72
2021/11/07 07:42:58;;;;;;;38.47;27.55;;;;;;;13.24;71.89;95633.84;5090749;28;20524;-72
2021/11/07 07:45:23;;;;;;;39.03;24.77;;;;;;;13.37;71.36;95647.63;5062021;28;20453;-71
2021/11/07 07:47:49;;;;;;;39.40;26.75;;;;;;;13.54;72.26;95648.00;5076376;28;20016;-71
2021/11/07 07:50:16;;;;;;;34.30;25.88;;;;;;;13.71;72.41;95644.88;5089202;28;20058;-72
2021/11/07 07:52:42;;;;;;;43.65;27.77;;;;;;;13.94;70.76;95644.75;5052341;28;20127;-72
2021/11/07 07:55:08;;;;;;;35.40;23.98;;;;;;;14.06;71.16;95635.88;5086893;28;20488;-72
2021/11/07 07:57:34;;;;;;;39.45;26.27;;;;;;;14.14;70.99;95632.63;5089784;28;20089;-72
2021/11/07 08:00:00;;;;;;;33.63;24.42;;;;;;;14.04;70.17;95615.13;5088009;28;20051;-72
2021/11/07 08:02:25;;;;;;;29.17;20.83;;;;;;;14.25;70.12;95641.22;5086857;28;20039;-72
2021/11/07 08:04:52;;;;;;;27.23;19.25;;;;;;;14.27;69.84;95641.91;5088883;28;20036;-72
2021/11/07 08:07:17;;;;;;;30.13;21.42;;;;;;;14.31;69.47;95647.69;5078255;28;20505;-72
2021/11/07 08:09:43;;;;;;;36.55;25.40;;;;;;;14.34;68.30;95644.81;5072312;28;20119;-73
2021/11/07 08:12:08;;;;;;;41.28;25.45;;;;;;;14.27;68.35;95639.31;5081900;28;20025;-73
2021/11/07 08:14:35;;;;;;;40.92;26.98;;;;;;;14.19;68.26;95635.69;5081584;28;20092;-72
2021/11/07 08:17:01;;;;;;;37.20;26.55;;;;;;;14.23;68.38;95637.06;5069761;28;20560;-73
2021/11/07 08:19:26;;;;;;;38.10;26.88;;;;;;;14.29;67.83;95637.41;5068015;28;20032;-74
2021/11/07 08:21:52;;;;;;;40.03;26.13;;;;;;;14.22;68.11;95631.03;5075784;28;20044;-70
2021/11/07 08:24:18;;;;;;;39.13;26.40;;;;;;;14.33;68.69;95637.97;5074513;28;20039;-70
2021/11/07 08:26:44;;;;;;;36.15;25.30;;;;;;;14.37;68.58;95643.75;5053478;28;20486;-71
2021/11/07 08:29:11;;;;;;;31.48;22.02;;;;;;;14.44;68.72;95634.44;5089182;28;20024;-71
2021/11/07 08:31:38;;;;;;;36.58;26.77;;;;;;;14.51;68.63;95638.16;5037693;28;20036;-71
2021/11/07 08:34:05;;;;;;;33.33;24.42;;;;;;;14.52;68.55;95632.84;5059468;28;20077;-71
2021/11/07 08:36:38;;;;;;;32.55;21.95;;;;;;;14.59;68.19;95632.31;5090318;28;20032;-71
2021/11/07 08:39:31;;;;;;;38.20;26.20;;;;;;;14.71;68.15;95626.88;5063966;28;20506;-70
2021/11/07 08:41:59;;;;;;;41.75;28.85;;;;;;;14.85;67.84;95623.06;5072615;28;20536;-71
2021/11/07 09:00:32;;;;;;;31.25;21.63;;;;;;;15.94;66.62;95578.47;5079360;28;20090;-71
2021/11/07 09:08:18;;;;;;;35.60;25.27;;;;;;;16.13;63.32;95549.59;5075263;28;20090;-72
2021/11/07 09:10:45;;;;;;;35.95;23.55;;;;;;;16.24;64.05;95538.09;5075569;28;20037;-72
2021/11/07 09:13:12;;;;;;;32.50;24.98;;;;;;;16.38;64.04;95547.28;5093079;28;20027;-72
2021/11/07 09:15:41;;;;;;;28.95;23.42;;;;;;;16.34;63.34;95523.16;5059929;28;20561;-73
2021/11/07 09:18:07;;;;;;;29.20;22.02;;;;;;;16.52;63.55;95534.53;5094531;28;20020;-73
2021/11/07 09:20:44;;;;;;;25.35;18.88;;;;;;;16.60;63.39;95518.03;5094438;28;20503;-73
2021/11/07 09:23:29;;;;;;;26.38;20.25;;;;;;;16.68;62.85;95522.56;5094123;28;20036;-73
2021/11/07 09:28:31;;;;;;;26.75;19.23;;;;;;;16.66;61.99;95514.00;5076651;28;20063;-73
2021/11/07 09:31:07;;;;;;;23.95;19.63;;;;;;;16.47;61.53;95502.66;5061579;28;20032;-73
2021/11/07 09:38:47;;;;;;;31.42;22.42;;;;;;;16.30;61.96;95501.66;5093032;28;20036;-73
2021/11/07 09:49:24;;;;;;;26.98;21.80;;;;;;;16.15;62.62;95471.63;5059526;28;20048;-73
2021/11/07 09:52:14;;;;;;;26.52;20.98;;;;;;;16.21;62.87;95478.09;5039282;28;20029;-73
2021/11/07 09:54:44;;;;;;;26.63;19.40;;;;;;;16.29;62.43;95480.81;5086203;28;20048;-73
2021/11/07 09:57:11;;;;;;;24.83;18.33;;;;;;;16.32;62.41;95477.91;5092385;28;20543;-72
2021/11/07 09:59:37;;;;;;;23.05;18.48;;;;;;;16.41;62.24;95484.06;5075461;28;20040;-72
2021/11/07 10:02:03;;;;;;;26.77;18.20;;;;;;;16.48;62.30;95482.50;5075398;28;20043;-72
2021/11/07 10:04:30;;;;;;;22.05;16.63;;;;;;;16.59;62.70;95478.88;5092046;28;20130;-72
2021/11/07 10:07:14;;;;;;;24.17;17.35;;;;;;;16.66;61.69;95470.25;5092159;28;20375;-73
2021/11/07 10:09:41;;;;;;;21.52;16.30;;;;;;;16.70;61.79;95468.16;5093388;28;20136;-72
2021/11/07 10:12:24;;;;;;;24.45;17.60;;;;;;;16.67;61.51;95461.41;5092026;28;20024;-72
2021/11/07 10:14:57;;;;;;;24.23;16.45;;;;;;;16.71;61.28;95460.13;5092160;28;20032;-72
2021/11/07 10:17:34;;;;;;;19.80;14.95;;;;;;;16.67;61.46;95447.47;5091953;28;20107;-72
2021/11/07 10:20:09;;;;;;;25.25;17.88;;;;;;;16.73;61.37;95457.38;5092008;28;20489;-72
2021/11/07 10:22:35;;;;;;;20.73;15.55;;;;;;;16.81;61.47;95451.41;5076293;28;20511;-73
2021/11/07 10:25:00;;;;;;;23.50;17.55;;;;;;;16.82;61.26;95438.13;5074770;28;20043;-72
2021/11/07 10:27:26;;;;;;;21.63;16.30;;;;;;;16.94;61.14;95438.75;5091704;28;20035;-73
2021/11/07 10:29:53;;;;;;;20.38;15.45;;;;;;;17.00;61.01;95434.69;5091639;28;20032;-72
2021/11/07 10:32:33;;;;;;;25.42;18.85;;;;;;;17.07;60.37;95436.53;5089914;28;20035;-72
2021/11/07 10:35:27;;;;;;;22.45;16.27;;;;;;;17.06;60.59;95429.66;5091577;28;20051;-72
2021/11/07 10:46:16;;;;;;;21.08;16.65;;;;;;;17.28;59.78;95412.59;5091403;28;20043;-73
2021/11/07 10:53:44;;;;;;;22.35;15.40;;;;;;;17.41;59.30;95386.75;5091393;28;20085;-72
2021/11/07 10:56:10;;;;;;;22.83;16.67;;;;;;;17.51;59.25;95391.88;5090520;28;20036;-72
2021/11/07 10:58:39;;;;;;;22.60;16.70;;;;;;;17.53;58.96;95383.84;5092319;28;20028;-73
2021/11/07 11:01:10;;;;;;;22.35;15.75;;;;;;;17.56;58.60;95375.66;5091027;28;20070;-72
2021/11/07 11:03:43;;;;;;;18.05;13.20;;;;;;;17.63;58.95;95380.13;5074236;28;20425;-72
2021/11/07 11:06:14;;;;;;;18.23;14.40;;;;;;;17.71;58.39;95375.88;5092010;28;20067;-71
2021/11/07 11:08:58;;;;;;;20.10;15.38;;;;;;;17.71;57.95;95366.19;5091039;28;20387;-72
2021/11/07 11:11:29;;;;;;;19.65;14.93;;;;;;;17.71;58.21;95362.75;5090978;28;20051;-72
2021/11/07 11:14:18;;;;;;;20.45;13.52;;;;;;;17.74;58.75;95359.81;5091975;28;20111;-72
2021/11/07 11:16:55;;;;;;;21.73;16.80;;;;;;;17.75;58.72;95346.53;5090837;28;20044;-72
2021/11/07 11:19:47;;;;;;;18.90;15.10;;;;;;;17.85;58.86;95341.16;5075455;28;20058;-72
2021/11/07 11:33:47;;;;;;;14.75;12.25;;;;;;;18.02;57.79;95321.00;5029195;28;20495;-72
2021/11/07 11:38:50;;;;;;;20.98;14.57;;;;;;;18.09;57.31;95308.88;5092464;28;20032;-72
2021/11/07 11:41:30;;;;;;;21.42;14.82;;;;;;;18.07;56.94;95313.47;5074392;28;20036;-72
2021/11/07 11:43:56;;;;;;;18.23;15.43;;;;;;;18.14;57.35;95313.66;5075686;28;20516;-72
2021/11/07 11:46:52;;;;;;;20.42;14.20;;;;;;;18.17;57.18;95311.53;5057313;28;20032;-72
2021/11/07 11:52:08;;;;;;;15.40;12.52;;;;;;;18.20;57.22;95300.69;5073890;28;20417;-72
2021/11/07 11:57:26;;;;;;;18.20;14.70;;;;;;;18.16;56.85;95290.63;5092003;28;20040;-73
2021/11/07 12:05:04;;;;;;;18.55;15.48;;;;;;;18.15;56.70;95281.13;5073617;28;20470;-71
2021/11/07 12:07:50;;;;;;;16.85;13.57;;;;;;;18.20;56.80;95270.94;5089095;28;20036;-71
2021/11/07 12:10:28;;;;;;;17.60;14.00;;;;;;;18.28;56.63;95253.38;5089694;28;20585;-71
2021/11/07 12:13:03;;;;;;;21.15;14.00;;;;;;;18.38;56.31;95241.84;5090133;28;20097;-70
2021/11/07 12:15:44;;;;;;;18.27;14.13;;;;;;;18.42;56.21;95244.00;5091293;28;20028;-70
2021/11/07 12:18:10;;;;;;;14.73;13.23;;;;;;;18.44;56.27;95246.44;5090087;28;20073;-72
2021/11/07 12:20:38;;;;;;;21.35;15.02;;;;;;;18.41;55.56;95231.00;5073091;28;20478;-73
2021/11/07 12:23:33;;;;;;;19.00;14.77;;;;;;;18.42;55.69;95236.09;5089829;28;20020;-70
2021/11/07 12:26:21;;;;;;;17.45;12.80;;;;;;;18.44;55.83;95233.28;5089907;28;20050;-72
2021/11/07 12:28:48;;;;;;;17.67;13.68;;;;;;;18.45;56.17;95227.06;5089632;28;20047;-71
2021/11/07 12:31:14;;;;;;;18.65;14.85;;;;;;;18.53;55.72;95229.69;5091225;28;20040;-72
2021/11/07 12:33:59;;;;;;;18.98;13.40;;;;;;;18.56;55.92;95229.34;5089770;28;20134;-71
2021/11/07 12:36:50;;;;;;;15.70;13.25;;;;;;;18.56;55.82;95224.09;5089734;28;20426;-71
2021/11/07 12:42:20;;;;;;;15.27;12.48;;;;;;;18.46;55.63;95205.03;5089806;28;20456;-71
2021/11/07 12:44:47;;;;;;;17.95;13.32;;;;;;;18.62;55.47;95217.34;5089510;28;20040;-71
2021/11/07 12:47:13;;;;;;;16.88;14.23;;;;;;;18.67;55.52;95215.88;5072953;28;20028;-70
2021/11/07 12:49:40;;;;;;;18.83;14.48;;;;;;;18.71;55.41;95216.34;5089514;28;20028;-71
2021/11/07 12:52:05;;;;;;;16.50;13.70;;;;;;;18.74;55.58;95216.84;5090745;28;20093;-72
2021/11/07 12:54:35;;;;;;;22.27;13.73;;;;;;;18.72;55.34;95210.06;5090719;28;20036;-71
2021/11/07 12:57:08;;;;;;;19.60;15.67;;;;;;;18.78;55.17;95212.09;5089566;28;20031;-71
2021/11/07 12:59:47;;;;;;;20.80;15.23;;;;;;;18.81;55.21;95210.94;5090602;28;20781;-71
2021/11/07 13:02:22;;;;;;;21.10;15.77;;;;;;;18.84;54.95;95208.78;5089582;28;20031;-71
2021/11/07 13:05:37;;;;;;;20.73;14.85;;;;;;;18.82;55.08;95204.69;5090656;28;20409;-71
2021/11/07 13:07:59;;;;;;;19.58;15.18;;;;;;;18.81;55.29;95195.16;5088394;28;20036;-71
2021/11/07 13:21:34;;;;;;;19.33;13.63;;;;;;;18.90;54.73;95200.22;5094746;28;20040;-71
2021/11/07 13:27:09;;;;;;;17.98;14.05;;;;;;;18.92;54.89;95206.13;5093264;28;20064;-71
2021/11/07 13:29:40;;;;;;;16.00;12.75;;;;;;;18.93;54.87;95205.13;5093254;28;20032;-71
2021/11/07 13:32:32;;;;;;;15.70;12.35;;;;;;;18.91;54.76;95206.28;5094174;28;20546;-71
2021/11/07 13:35:20;;;;;;;15.45;12.93;;;;;;;18.89;54.73;95208.28;5090971;28;20044;-72
2021/11/07 13:37:54;;;;;;;21.27;15.18;;;;;;;18.87;54.72;95205.00;5092824;28;20028;-72
2021/11/07 13:40:32;;;;;;;20.35;14.35;;;;;;;18.88;54.70;95198.72;5094067;28;20119;-72
2021/11/07 13:43:09;;;;;;;18.25;13.75;;;;;;;18.81;54.24;95195.16;5093903;28;20040;-72
2021/11/07 13:45:36;;;;;;;17.13;14.02;;;;;;;18.78;54.24;95192.81;5092534;28;20048;-71
2021/11/07 13:48:04;;;;;;;16.85;12.52;;;;;;;18.74;54.18;95195.78;5075878;28;20027;-72
2021/11/07 13:50:32;;;;;;;16.90;13.70;;;;;;;18.72;54.12;95189.03;5059255;28;20035;-71